Time;durP1;ratioP1;P1;durP2;ratioP2;P2;SDS_P1;SDS_P2;PMS_P1;PMS_P2;Temp;Humidity;BMP_temperature;BMP_pressure;BME280_temperature;BME280_humidity;BME280_pressure;Samples;Min_cycle;Max_cycle;Signal;HPM_P1;HPM_P2
2021/03/14 00:00:13;;;;;;;8.20;2.73;;;;;;;2.79;85.76;98497.69;5033458;28;20041;-69
2021/03/14 00:02:38;;;;;;;5.53;1.50;;;;;;;2.79;85.76;98502.16;5050812;28;20039;-68
2021/03/14 00:05:05;;;;;;;4.25;1.67;;;;;;;2.82;86.08;98518.44;5033501;28;20475;-69
2021/03/14 00:07:30;;;;;;;4.55;1.33;;;;;;;2.79;86.14;98512.69;5016646;28;20040;-69
2021/03/14 00:09:56;;;;;;;9.17;1.73;;;;;;;2.77;86.31;98523.41;5033312;28;20489;-69
2021/03/14 00:12:22;;;;;;;7.70;1.90;;;;;;;2.78;86.79;98540.03;5033792;28;20283;-68
2021/03/14 00:14:47;;;;;;;3.37;1.87;;;;;;;2.68;87.43;98542.84;5054682;28;20036;-68
2021/03/14 00:17:13;;;;;;;8.87;2.03;;;;;;;2.66;88.26;98553.53;5037176;28;20037;-69
2021/03/14 00:19:38;;;;;;;4.60;1.63;;;;;;;2.67;87.94;98547.28;5054426;28;20344;-69
2021/03/14 00:22:03;;;;;;;8.50;2.37;;;;;;;2.70;87.86;98557.50;5037087;28;20288;-68
2021/03/14 00:24:29;;;;;;;11.60;2.03;;;;;;;2.68;87.67;98569.19;5054525;28;20033;-68
2021/03/14 00:26:54;;;;;;;6.43;1.70;;;;;;;2.65;87.86;98580.06;5054558;28;20037;-68
2021/03/14 00:29:19;;;;;;;7.87;2.53;;;;;;;2.67;87.97;98583.31;5054241;28;20047;-68
2021/03/14 00:31:45;;;;;;;10.07;2.00;;;;;;;2.66;87.67;98581.69;5054399;28;20041;-68
2021/03/14 00:34:10;;;;;;;7.27;2.20;;;;;;;2.69;87.75;98594.53;5054250;28;20041;-68
2021/03/14 00:36:35;;;;;;;5.93;2.47;;;;;;;2.70;87.25;98593.56;5036883;28;20442;-68
2021/03/14 00:39:01;;;;;;;6.27;3.30;;;;;;;2.71;87.46;98611.00;5053971;28;20042;-68
2021/03/14 00:41:26;;;;;;;8.70;2.85;;;;;;;2.72;86.54;98612.66;5054307;28;20033;-68
2021/03/14 00:43:51;;;;;;;4.17;2.10;;;;;;;2.77;86.14;98627.97;5054209;28;20449;-68
2021/03/14 00:46:17;;;;;;;7.03;2.90;;;;;;;2.69;86.23;98631.41;5054147;28;20474;-68
2021/03/14 00:48:45;;;;;;;8.02;3.45;;;;;;;2.69;86.60;98639.31;5037350;28;20028;-68
2021/03/14 00:51:10;;;;;;;9.02;2.80;;;;;;;2.75;86.74;98657.13;5054181;28;20462;-68
2021/03/14 00:53:41;;;;;;;8.77;2.58;;;;;;;2.78;85.35;98656.78;5053017;28;20531;-68
2021/03/14 00:56:12;;;;;;;5.85;2.60;;;;;;;2.75;85.83;98659.75;5037314;28;20399;-68
2021/03/14 00:58:38;;;;;;;6.45;3.10;;;;;;;2.75;86.17;98672.94;5052855;28;20033;-68
2021/03/14 01:01:04;;;;;;;9.02;2.33;;;;;;;2.77;86.43;98678.06;5052832;28;20037;-68
2021/03/14 01:03:33;;;;;;;9.43;3.47;;;;;;;2.73;86.71;98682.81;5053030;28;20075;-68
2021/03/14 01:05:59;;;;;;;10.73;4.03;;;;;;;2.74;86.88;98693.19;5053951;28;20052;-65
2021/03/14 01:08:24;;;;;;;5.67;2.10;;;;;;;2.71;86.94;98701.41;5052639;28;20033;-65
2021/03/14 01:10:50;;;;;;;5.50;2.25;;;;;;;2.77;86.99;98714.94;5052796;28;20037;-65
2021/03/14 01:13:28;;;;;;;7.57;2.72;;;;;;;2.79;86.87;98715.63;5052626;28;20045;-68
2021/03/14 01:15:53;;;;;;;4.30;3.00;;;;;;;2.78;86.53;98722.66;5052566;28;20090;-68
2021/03/14 01:18:19;;;;;;;7.87;2.13;;;;;;;2.78;86.70;98735.84;5052373;28;20029;-68
2021/03/14 01:20:44;;;;;;;7.23;2.30;;;;;;;2.77;86.97;98736.84;5036053;28;20452;-68
2021/03/14 01:23:09;;;;;;;7.27;3.10;;;;;;;2.81;86.94;98745.25;5053198;28;20452;-68
2021/03/14 01:25:35;;;;;;;14.37;2.53;;;;;;;2.81;86.53;98759.25;5052532;28;20383;-68
2021/03/14 01:28:00;;;;;;;11.73;2.97;;;;;;;2.85;86.49;98765.84;5053098;28;20045;-68
2021/03/14 01:30:26;;;;;;;9.30;3.07;;;;;;;2.84;86.09;98769.47;5053470;28;20114;-68
2021/03/14 01:32:51;;;;;;;11.43;3.73;;;;;;;2.81;86.12;98768.97;5053313;28;20090;-68
2021/03/14 01:35:17;;;;;;;8.32;2.45;;;;;;;2.78;85.69;98775.38;5053326;28;20037;-68
2021/03/14 01:37:44;;;;;;;;;;;;;;;2.83;85.20;98780.16;5053372;28;20466;-68
2021/03/14 01:40:10;;;;;;;5.43;3.08;;;;;;;2.81;84.91;98790.91;5053303;28;19916;-68
2021/03/14 01:42:35;;;;;;;6.20;2.50;;;;;;;2.82;84.18;98784.63;5052008;28;20051;-69
2021/03/14 01:45:05;;;;;;;4.93;2.30;;;;;;;2.81;84.88;98800.59;5053115;28;20037;-68
2021/03/14 01:47:39;;;;;;;7.20;2.72;;;;;;;2.86;84.80;98814.94;5052908;28;20294;-68
2021/03/14 01:50:08;;;;;;;9.95;3.22;;;;;;;2.85;85.10;98817.75;5052892;28;20356;-69
2021/03/14 01:52:33;;;;;;;11.35;3.22;;;;;;;2.84;85.27;98816.91;5035341;28;20029;-69
2021/03/14 01:55:00;;;;;;;7.87;2.80;;;;;;;2.85;85.85;98828.28;5035277;28;20363;-69
2021/03/14 01:57:26;;;;;;;8.52;2.92;;;;;;;2.85;85.83;98834.38;5035009;28;20040;-69
2021/03/14 01:59:52;;;;;;;14.25;2.78;;;;;;;2.80;86.26;98836.66;5035202;28;20040;-69
2021/03/14 02:02:17;;;;;;;7.83;2.87;;;;;;;2.74;86.72;98840.78;5052795;28;20029;-69
2021/03/14 02:04:42;;;;;;;8.27;2.70;;;;;;;2.83;86.32;98846.06;5018713;28;20032;-69
2021/03/14 02:07:08;;;;;;;8.40;2.70;;;;;;;2.84;85.56;98853.00;5052684;28;20057;-69
2021/03/14 02:09:33;;;;;;;9.83;2.30;;;;;;;2.86;85.29;98851.84;5035010;28;20472;-69
2021/03/14 02:12:02;;;;;;;9.27;2.30;;;;;;;2.89;84.75;98850.72;5035037;28;20450;-69
2021/03/14 02:14:28;;;;;;;4.03;1.80;;;;;;;2.84;84.76;98848.53;5034936;28;20083;-69
2021/03/14 02:16:56;;;;;;;5.18;1.92;;;;;;;2.81;84.63;98859.41;5035084;28;20056;-69
2021/03/14 02:19:27;;;;;;;7.97;2.53;;;;;;;2.84;84.59;98867.00;5052146;28;20465;-69
2021/03/14 02:21:53;;;;;;;10.02;1.90;;;;;;;2.81;85.24;98874.38;5052442;28;20507;-69
2021/03/14 02:24:22;;;;;;;10.30;3.53;;;;;;;2.79;85.61;98885.09;5034768;28;20033;-69
2021/03/14 02:26:53;;;;;;;6.28;2.00;;;;;;;2.81;85.50;98890.19;5052271;28;20055;-69
2021/03/14 02:29:21;;;;;;;7.30;2.45;;;;;;;2.80;85.50;98894.66;5051954;28;20339;-69
2021/03/14 02:31:49;;;;;;;4.70;1.90;;;;;;;2.82;85.81;98897.94;5034656;28;20577;-69
2021/03/14 02:34:19;;;;;;;6.15;2.20;;;;;;;2.82;85.71;98897.94;5052030;28;20051;-69
2021/03/14 02:36:45;;;;;;;8.60;1.92;;;;;;;2.83;85.88;98915.41;5017282;28;20473;-69
2021/03/14 02:39:16;;;;;;;6.35;1.95;;;;;;;2.77;85.62;98915.25;5051639;28;20458;-69
2021/03/14 02:41:43;;;;;;;4.68;2.03;;;;;;;2.80;85.90;98926.28;5034540;28;20366;-69
2021/03/14 02:44:13;;;;;;;7.15;1.85;;;;;;;2.82;86.01;98921.69;5034453;28;20571;-68
2021/03/14 02:46:39;;;;;;;6.35;2.53;;;;;;;2.84;85.65;98919.72;5051988;28;20071;-69
2021/03/14 02:49:05;;;;;;;11.35;2.92;;;;;;;2.82;85.68;98937.50;5037909;28;20126;-69
2021/03/14 02:51:31;;;;;;;9.65;2.80;;;;;;;2.89;85.57;98933.25;5051814;28;20120;-69
2021/03/14 02:53:56;;;;;;;12.77;2.50;;;;;;;2.90;84.72;98941.97;5051812;28;20061;-69
2021/03/14 02:56:22;;;;;;;12.55;3.28;;;;;;;2.86;84.72;98941.47;5051807;28;20557;-69
2021/03/14 02:58:50;;;;;;;5.13;2.00;;;;;;;2.91;84.22;98951.53;5050469;28;20048;-69
2021/03/14 03:01:16;;;;;;;5.35;2.42;;;;;;;2.86;83.78;98959.91;5050664;28;20843;-69
2021/03/14 03:03:41;;;;;;;8.67;1.70;;;;;;;2.87;82.99;98968.66;5051678;28;20044;-68
2021/03/14 03:06:08;;;;;;;5.15;2.40;;;;;;;2.90;83.13;98978.88;5050460;28;20331;-69
2021/03/14 03:08:34;;;;;;;4.80;2.40;;;;;;;2.88;82.90;98981.69;5050273;28;20123;-69
2021/03/14 03:11:04;;;;;;;5.13;2.70;;;;;;;2.84;83.41;98990.88;5051582;28;20198;-69
2021/03/14 03:13:33;;;;;;;6.05;2.00;;;;;;;2.82;83.78;98992.84;5050435;28;20047;-69
2021/03/14 03:15:59;;;;;;;5.53;2.10;;;;;;;2.80;83.37;98993.97;5050429;28;20033;-69
2021/03/14 03:18:25;;;;;;;5.97;2.85;;;;;;;2.82;83.07;99003.38;5051088;28;20052;-69
2021/03/14 03:20:51;;;;;;;9.82;2.97;;;;;;;2.82;82.86;99002.56;5050487;28;20063;-69
2021/03/14 03:23:17;;;;;;;5.35;2.50;;;;;;;2.83;83.58;99015.56;5050350;28;20036;-69
2021/03/14 03:25:42;;;;;;;3.78;2.08;;;;;;;2.85;83.05;99020.69;5051360;28;20508;-69
2021/03/14 03:28:12;;;;;;;6.37;1.87;;;;;;;2.79;83.49;99026.59;5050023;28;20044;-69
2021/03/14 03:30:37;;;;;;;6.07;2.65;;;;;;;2.77;83.58;99032.00;5050355;28;20585;-69
2021/03/14 03:33:03;;;;;;;9.33;2.87;;;;;;;2.77;84.07;99036.47;5051171;28;20119;-69
2021/03/14 03:35:30;;;;;;;8.73;2.40;;;;;;;2.79;83.59;99045.88;5033489;28;20037;-69
2021/03/14 03:37:56;;;;;;;7.72;2.75;;;;;;;2.80;83.31;99042.25;5033346;28;20178;-69
2021/03/14 03:40:25;;;;;;;26.92;3.72;;;;;;;2.81;83.81;99050.97;5033549;28;20491;-69
2021/03/14 03:43:11;;;;;;;6.80;2.25;;;;;;;2.77;83.18;99058.38;5050148;28;20458;-69
2021/03/14 03:45:43;;;;;;;5.05;2.03;;;;;;;2.80;83.25;99060.69;5051060;28;20068;-69
2021/03/14 03:48:13;;;;;;;7.22;1.50;;;;;;;2.81;83.41;99066.78;5054380;28;20120;-69
2021/03/14 03:50:40;;;;;;;5.07;2.42;;;;;;;2.78;83.20;99065.28;5054278;28;20037;-69
2021/03/14 03:53:07;;;;;;;;;;;;;;;2.78;83.82;99070.56;5054831;28;20064;-69
2021/03/14 03:55:33;;;;;;;6.97;2.90;;;;;;;2.74;84.05;99080.59;5055112;28;20019;-69
2021/03/14 03:58:00;;;;;;;4.63;2.20;;;;;;;2.70;84.54;99081.03;5054771;28;20128;-69
2021/03/14 04:00:28;;;;;;;6.88;4.10;;;;;;;2.73;84.40;99097.38;5055062;28;20854;-69
2021/03/14 04:02:53;;;;;;;6.93;2.97;;;;;;;2.68;83.81;99102.28;5054150;28;20071;-69
2021/03/14 04:05:19;;;;;;;5.93;3.23;;;;;;;2.71;83.89;99104.59;5054156;28;20438;-69
2021/03/14 04:07:46;;;;;;;5.57;3.50;;;;;;;2.64;83.74;99115.91;5053839;28;20033;-69
2021/03/14 04:10:18;;;;;;;7.93;3.22;;;;;;;2.66;83.78;99120.03;5054833;28;20037;-69
2021/03/14 04:12:46;;;;;;;6.57;2.97;;;;;;;2.62;83.74;99131.88;5053828;28;20037;-69
2021/03/14 04:15:14;;;;;;;8.15;3.08;;;;;;;2.67;83.90;99126.97;5054692;28;20041;-69
2021/03/14 04:17:41;;;;;;;7.63;3.75;;;;;;;2.67;83.78;99136.66;5054425;28;20336;-69
2021/03/14 04:20:10;;;;;;;7.20;4.05;;;;;;;2.63;84.03;99145.88;5054655;28;20665;-69
2021/03/14 04:22:38;;;;;;;7.57;4.10;;;;;;;2.60;84.39;99146.16;5053691;28;20136;-69
2021/03/14 04:25:05;;;;;;;10.35;3.83;;;;;;;2.62;84.71;99154.75;5054436;28;20466;-69
2021/03/14 04:27:30;;;;;;;9.25;3.85;;;;;;;2.56;84.54;99158.81;5036719;28;20087;-69
2021/03/14 04:29:56;;;;;;;7.32;3.55;;;;;;;2.51;84.82;99168.97;5054784;28;20044;-69
2021/03/14 04:32:23;;;;;;;11.77;5.03;;;;;;;2.47;84.95;99181.63;5054576;28;20365;-69
2021/03/14 04:34:49;;;;;;;10.70;4.65;;;;;;;2.47;84.34;99181.63;5054363;28;20109;-69
2021/03/14 04:37:15;;;;;;;8.70;4.85;;;;;;;2.47;84.97;99183.41;5053514;28;20033;-69
2021/03/14 04:39:41;;;;;;;9.90;5.03;;;;;;;2.46;85.29;99193.13;5052992;28;20080;-69
2021/03/14 04:42:07;;;;;;;10.82;5.15;;;;;;;2.46;84.98;99190.50;5054387;28;20127;-69
2021/03/14 04:44:33;;;;;;;7.70;3.85;;;;;;;2.40;85.14;99204.25;5054282;28;20033;-69
2021/03/14 04:46:59;;;;;;;10.13;4.53;;;;;;;2.35;85.78;99213.59;5053291;28;20045;-69
2021/03/14 04:49:24;;;;;;;7.93;4.18;;;;;;;2.41;84.86;99215.63;5052776;28;20037;-69
2021/03/14 04:51:50;;;;;;;8.35;4.32;;;;;;;2.39;84.47;99223.69;5053252;28;20036;-69
2021/03/14 04:54:17;;;;;;;12.60;4.60;;;;;;;2.36;84.77;99234.50;5053020;28;20051;-69
2021/03/14 04:56:42;;;;;;;8.15;3.88;;;;;;;2.31;84.99;99226.22;5054048;28;20573;-69
2021/03/14 04:59:13;;;;;;;8.73;4.72;;;;;;;2.25;84.57;99237.34;5052101;28;20128;-64
2021/03/14 05:01:42;;;;;;;8.77;4.70;;;;;;;2.22;85.37;99248.16;5052892;28;20043;-64
2021/03/14 05:04:10;;;;;;;6.05;3.85;;;;;;;2.26;86.13;99260.06;5036319;28;20370;-64
2021/03/14 05:06:39;;;;;;;12.60;4.32;;;;;;;2.22;86.60;99263.94;5053832;28;20535;-64
2021/03/14 05:09:07;;;;;;;17.65;5.53;;;;;;;2.16;87.21;99268.00;5052542;28;20040;-64
2021/03/14 05:11:34;;;;;;;12.23;5.40;;;;;;;2.21;87.20;99273.66;5052833;28;20041;-64
2021/03/14 05:14:00;;;;;;;15.30;5.45;;;;;;;2.14;87.71;99283.09;5052788;28;20061;-64
2021/03/14 05:16:27;;;;;;;8.68;4.00;;;;;;;2.19;87.53;99298.47;5053708;28;20131;-64
2021/03/14 05:18:53;;;;;;;13.18;5.32;;;;;;;2.17;87.05;99310.97;5053306;28;20123;-64
2021/03/14 05:21:18;;;;;;;18.25;6.88;;;;;;;2.15;86.56;99320.78;5053525;28;20120;-64
2021/03/14 05:23:44;;;;;;;14.27;6.90;;;;;;;2.11;86.26;99318.47;5053613;28;20406;-64
2021/03/14 05:26:12;;;;;;;14.50;5.95;;;;;;;2.10;85.47;99327.31;5053506;28;20082;-64
2021/03/14 05:28:39;;;;;;;9.73;5.38;;;;;;;2.16;85.55;99322.47;5053133;28;20347;-64
2021/03/14 05:31:24;;;;;;;12.68;4.72;;;;;;;2.09;85.21;99330.09;5052494;28;20067;-64
2021/03/14 05:33:49;;;;;;;9.60;4.88;;;;;;;2.17;84.67;99337.28;5052998;28;20373;-64
2021/03/14 05:36:15;;;;;;;14.13;6.20;;;;;;;2.10;84.77;99343.13;5052191;28;20041;-64
2021/03/14 05:38:40;;;;;;;9.97;5.10;;;;;;;2.08;84.61;99358.25;5035479;28;20365;-64
2021/03/14 05:41:05;;;;;;;9.77;4.47;;;;;;;2.09;83.57;99367.78;5053282;28;20118;-64
2021/03/14 05:43:31;;;;;;;9.40;5.37;;;;;;;2.08;83.40;99363.50;5052309;28;20103;-64
2021/03/14 05:45:56;;;;;;;17.00;5.70;;;;;;;2.14;82.88;99379.72;5053171;28;20045;-64
2021/03/14 05:48:21;;;;;;;11.30;4.60;;;;;;;2.06;82.97;99385.66;5052652;28;20036;-64
2021/03/14 05:50:47;;;;;;;13.23;6.03;;;;;;;2.03;83.21;99386.78;5053009;28;20128;-64
2021/03/14 05:53:15;;;;;;;9.83;4.87;;;;;;;2.06;83.09;99401.47;5035478;28;20048;-64
2021/03/14 05:55:40;;;;;;;10.35;4.53;;;;;;;2.03;82.94;99397.31;5035202;28;20037;-64
2021/03/14 05:58:10;;;;;;;14.33;5.37;;;;;;;2.08;82.87;99402.16;5052652;28;20581;-64
2021/03/14 06:00:36;;;;;;;9.88;5.05;;;;;;;2.07;82.14;99403.97;5035356;28;20051;-64
2021/03/14 06:03:02;;;;;;;13.10;5.00;;;;;;;2.13;82.74;99418.38;5052689;28;20044;-64
2021/03/14 06:05:28;;;;;;;;;;;;;;;2.12;81.88;99421.97;5035589;28;20366;-64
2021/03/14 06:07:54;;;;;;;10.70;5.53;;;;;;;2.08;81.12;99426.69;5052446;28;19938;-69
2021/03/14 06:10:21;;;;;;;13.30;5.60;;;;;;;2.10;81.76;99445.78;5034163;28;20029;-69
2021/03/14 06:12:47;;;;;;;8.40;4.57;;;;;;;2.11;81.18;99442.22;5034983;28;20056;-69
2021/03/14 06:15:13;;;;;;;9.07;4.82;;;;;;;2.13;81.57;99443.84;5052471;28;20442;-69
2021/03/14 06:17:39;;;;;;;10.68;5.35;;;;;;;2.16;80.92;99454.13;5034510;28;20044;-69
2021/03/14 06:20:06;;;;;;;12.27;4.47;;;;;;;2.18;81.55;99453.00;5034961;28;20041;-69
2021/03/14 06:22:31;;;;;;;8.63;4.50;;;;;;;2.21;80.43;99462.44;5034911;28;20061;-69
2021/03/14 06:24:57;;;;;;;9.10;4.20;;;;;;;2.24;80.81;99467.41;5058209;28;20086;-69
2021/03/14 06:27:37;;;;;;;9.77;3.83;;;;;;;2.26;80.57;99481.28;5054086;28;20028;-69
2021/03/14 06:30:08;;;;;;;10.88;5.32;;;;;;;2.28;80.64;99490.69;5070779;28;20074;-69
2021/03/14 06:32:34;;;;;;;9.80;5.18;;;;;;;2.30;81.18;99499.28;5053971;28;20094;-69
2021/03/14 06:35:12;;;;;;;7.20;3.92;;;;;;;2.31;81.08;99508.84;5054335;28;20048;-69
2021/03/14 06:37:37;;;;;;;9.68;5.13;;;;;;;2.35;81.54;99511.22;5071708;28;20098;-69
2021/03/14 06:40:08;;;;;;;12.27;5.10;;;;;;;2.33;81.44;99529.78;5072051;28;20400;-69
2021/03/14 06:42:37;;;;;;;7.68;4.10;;;;;;;2.35;80.92;99532.28;5054326;28;20051;-69
2021/03/14 06:45:09;;;;;;;8.43;4.70;;;;;;;2.37;81.05;99531.19;5071850;28;20037;-69
2021/03/14 06:47:40;;;;;;;6.80;3.85;;;;;;;2.69;83.55;99543.19;5071460;28;20032;-69
2021/03/14 06:50:08;;;;;;;9.90;4.93;;;;;;;2.93;80.81;99548.03;5071741;28;20040;-69
2021/03/14 06:52:33;;;;;;;9.88;4.88;;;;;;;3.11;80.15;99558.63;5071708;28;20039;-69
2021/03/14 06:54:58;;;;;;;9.63;4.33;;;;;;;2.91;78.98;99565.78;5053346;28;20041;-69
2021/03/14 06:57:24;;;;;;;8.77;4.40;;;;;;;2.83;79.55;99578.81;5070834;28;20074;-69
2021/03/14 06:59:51;;;;;;;9.93;4.30;;;;;;;2.77;79.19;99580.22;5071360;28;20025;-69
2021/03/14 07:02:26;;;;;;;7.43;4.25;;;;;;;2.76;79.50;99583.81;5053678;28;20119;-69
2021/03/14 07:04:53;;;;;;;9.13;4.10;;;;;;;2.71;79.50;99601.88;5071273;28;20362;-69
2021/03/14 07:07:20;;;;;;;9.07;4.10;;;;;;;2.78;79.55;99596.88;5071471;28;20040;-69
2021/03/14 07:09:51;;;;;;;10.05;4.57;;;;;;;2.81;79.39;99615.91;5053293;28;20040;-69
2021/03/14 07:12:22;;;;;;;11.65;4.78;;;;;;;2.86;79.37;99615.47;5071407;28;20032;-69
2021/03/14 07:14:48;;;;;;;9.73;3.97;;;;;;;2.88;78.98;99624.03;5071243;28;20036;-69
2021/03/14 07:17:32;;;;;;;11.48;4.25;;;;;;;2.93;78.86;99627.94;5053670;28;20024;-69
2021/03/14 07:19:59;;;;;;;7.28;4.85;;;;;;;2.90;79.89;99632.66;5071285;28;20036;-69
2021/03/14 07:22:25;;;;;;;7.25;4.40;;;;;;;3.00;79.81;99640.53;5053136;28;20082;-69
2021/03/14 07:24:51;;;;;;;12.43;5.55;;;;;;;3.08;79.91;99661.78;5071144;28;20718;-69
2021/03/14 07:27:25;;;;;;;8.35;4.00;;;;;;;3.22;80.71;99653.44;5071175;28;20098;-69
2021/03/14 07:29:52;;;;;;;10.95;4.15;;;;;;;3.37;78.92;99665.22;5070893;28;20145;-69
2021/03/14 07:32:18;;;;;;;11.30;4.07;;;;;;;3.33;79.34;99679.66;5071088;28;20082;-69
2021/03/14 07:34:44;;;;;;;10.77;4.53;;;;;;;3.32;78.81;99679.78;5071038;28;20029;-69
2021/03/14 07:37:09;;;;;;;9.57;4.47;;;;;;;3.35;78.63;99684.81;5071064;28;20047;-69
2021/03/14 07:39:35;;;;;;;11.10;4.93;;;;;;;3.37;78.40;99694.25;5053249;28;20086;-69
2021/03/14 07:42:01;;;;;;;8.70;4.30;;;;;;;3.42;77.02;99706.16;5053537;28;20047;-69
2021/03/14 07:44:27;;;;;;;7.57;3.97;;;;;;;3.43;76.44;99697.28;5071018;28;20033;-69
2021/03/14 07:46:54;;;;;;;10.63;4.33;;;;;;;3.47;76.38;99712.69;5053420;28;20111;-69
2021/03/14 07:49:24;;;;;;;10.88;5.05;;;;;;;3.70;76.54;99718.47;5070418;28;20059;-69
2021/03/14 07:51:55;;;;;;;11.38;4.75;;;;;;;3.77;76.53;99734.56;5053410;28;20055;-69
2021/03/14 07:54:26;;;;;;;14.02;4.47;;;;;;;3.89;76.16;99743.97;5070518;28;20044;-69
2021/03/14 07:56:54;;;;;;;11.32;4.05;;;;;;;3.76;75.88;99736.34;5053083;28;20036;-69
2021/03/14 07:59:30;;;;;;;10.05;4.10;;;;;;;3.73;76.16;99741.94;5070455;28;20042;-68
2021/03/14 08:02:15;;;;;;;;;;;;;;;4.41;74.71;99738.19;5053632;28;20339;-69
2021/03/14 08:04:48;;;;;;;11.60;4.25;;;;;;;5.19;73.81;99749.06;5052835;28;20424;-69
2021/03/14 08:07:13;;;;;;;14.13;4.70;;;;;;;4.73;72.83;99764.16;5069249;28;20454;-69
2021/03/14 08:09:46;;;;;;;9.18;4.05;;;;;;;4.82;73.75;99759.78;5070166;28;20047;-69
2021/03/14 08:12:21;;;;;;;15.43;4.78;;;;;;;4.48;74.33;99767.50;5051487;28;20036;-69
2021/03/14 08:14:55;;;;;;;19.42;4.93;;;;;;;4.35;76.15;99775.75;5070751;28;20126;-69
2021/03/14 08:17:35;;;;;;;12.45;3.58;;;;;;;4.41;76.04;99778.66;5053213;28;20056;-69
2021/03/14 08:20:00;;;;;;;10.75;4.50;;;;;;;4.41;76.38;99786.59;5070823;28;20234;-69
2021/03/14 08:22:38;;;;;;;13.77;5.20;;;;;;;4.32;76.10;99791.91;5053206;28;20120;-69
2021/03/14 08:25:30;;;;;;;12.82;5.05;;;;;;;4.25;76.58;99804.88;5052979;28;20048;-69
2021/03/14 08:28:19;;;;;;;16.83;4.47;;;;;;;4.31;76.22;99811.38;5052799;28;20098;-69
2021/03/14 08:30:45;;;;;;;11.10;4.68;;;;;;;4.31;76.62;99811.38;5052983;28;20066;-69
2021/03/14 08:33:17;;;;;;;19.75;4.85;;;;;;;4.16;76.11;99817.13;5051155;28;20043;-69
2021/03/14 08:35:50;;;;;;;19.63;6.70;;;;;;;4.24;76.33;99819.06;5052245;28;20454;-69
2021/03/14 08:38:43;;;;;;;12.52;4.45;;;;;;;4.47;76.03;99827.44;5053994;28;20105;-69
2021/03/14 08:41:29;;;;;;;18.40;5.22;;;;;;;4.54;76.34;99830.34;5048091;28;20346;-69
2021/03/14 08:44:07;;;;;;;16.65;4.45;;;;;;;4.58;75.95;99827.25;5067126;28;20047;-69
2021/03/14 08:46:50;;;;;;;18.50;4.75;;;;;;;4.82;75.26;99833.81;5041775;28;20036;-69
2021/03/14 08:49:21;;;;;;;9.32;4.18;;;;;;;5.08;74.63;99833.97;5061733;28;20035;-69
2021/03/14 08:51:48;;;;;;;12.27;4.70;;;;;;;5.41;73.46;99837.78;5072760;28;20036;-69
2021/03/14 08:54:14;;;;;;;28.88;5.72;;;;;;;5.61;72.15;99845.53;5073801;28;20037;-69
2021/03/14 08:56:42;;;;;;;14.02;4.55;;;;;;;5.96;71.52;99846.53;5072929;28;20040;-69
2021/03/14 08:59:09;;;;;;;15.88;5.00;;;;;;;6.74;69.39;99842.00;5072576;28;20098;-69
2021/03/14 09:01:39;;;;;;;16.20;4.07;;;;;;;7.60;64.72;99843.50;5072884;28;20060;-69
2021/03/14 09:04:27;;;;;;;10.32;3.10;;;;;;;8.31;63.49;99851.78;5072645;28;20123;-69
2021/03/14 09:07:09;;;;;;;9.30;3.90;;;;;;;7.51;64.82;99857.78;5072450;28;20489;-69
2021/03/14 09:09:36;;;;;;;18.98;4.45;;;;;;;7.22;65.45;99855.56;5052409;28;20029;-69
2021/03/14 09:12:25;;;;;;;16.83;4.20;;;;;;;8.73;63.38;99863.97;5059064;28;20040;-69
2021/03/14 09:15:12;;;;;;;16.50;4.20;;;;;;;8.72;61.57;99867.63;5072405;28;20066;-69
2021/03/14 09:17:46;;;;;;;15.73;3.60;;;;;;;9.02;60.62;99867.84;5070642;28;20123;-69
2021/03/14 09:20:12;;;;;;;14.25;3.85;;;;;;;8.51;61.22;99873.53;5047493;28;20116;-69
2021/03/14 09:22:41;;;;;;;16.13;5.10;;;;;;;8.76;60.73;99884.94;5055901;28;20032;-69
2021/03/14 09:25:24;;;;;;;12.20;3.50;;;;;;;8.60;62.08;99884.97;5071457;28;20029;-69
2021/03/14 09:27:49;;;;;;;20.75;5.53;;;;;;;7.77;63.76;99888.69;5071660;28;20031;-69
2021/03/14 09:30:32;;;;;;;9.40;4.03;;;;;;;7.45;64.22;99895.63;5071875;28;20480;-69
2021/03/14 09:33:03;;;;;;;11.80;4.90;;;;;;;7.13;66.42;99905.16;5071907;28;20028;-69
2021/03/14 09:35:36;;;;;;;16.20;4.28;;;;;;;7.06;66.92;99917.41;5054138;28;20565;-69
2021/03/14 09:38:16;;;;;;;11.65;4.18;;;;;;;6.68;67.54;99914.25;5070068;28;20044;-69
2021/03/14 09:40:49;;;;;;;20.25;5.32;;;;;;;6.84;68.58;99918.00;5069609;28;20024;-70
2021/03/14 09:43:26;;;;;;;10.05;3.35;;;;;;;7.07;69.11;99924.38;5070959;28;20024;-69
2021/03/14 09:46:08;;;;;;;15.57;4.00;;;;;;;7.18;66.29;99932.03;5069713;28;20029;-69
2021/03/14 09:48:45;;;;;;;16.27;4.60;;;;;;;7.37;66.68;99928.31;5069144;28;20039;-69
2021/03/14 09:51:11;;;;;;;15.73;4.23;;;;;;;6.99;67.20;99927.00;5071567;28;20036;-69
2021/03/14 09:53:40;;;;;;;11.25;3.80;;;;;;;6.48;67.87;99934.00;5071480;28;20060;-69
2021/03/14 09:56:12;;;;;;;11.88;4.28;;;;;;;6.76;68.59;99935.50;5071214;28;20038;-69
2021/03/14 09:59:21;;;;;;;14.68;3.80;;;;;;;7.33;68.07;99939.41;5071872;28;20044;-69
2021/03/14 10:01:56;;;;;;;10.82;3.67;;;;;;;7.49;66.08;99941.28;5055940;28;20025;-69
2021/03/14 10:04:22;;;;;;;19.70;3.58;;;;;;;7.94;64.81;99943.53;5048460;28;20029;-69
2021/03/14 10:06:55;;;;;;;10.68;2.53;;;;;;;7.69;62.79;99942.66;5070960;28;20123;-69
2021/03/14 10:09:24;;;;;;;7.00;2.65;;;;;;;7.27;63.59;99948.00;5071898;28;20031;-69
2021/03/14 10:11:55;;;;;;;7.68;3.35;;;;;;;7.19;65.44;99954.13;5069553;28;20185;-69
2021/03/14 10:14:24;;;;;;;14.50;2.80;;;;;;;7.13;64.01;99966.22;5069243;28;20085;-69
2021/03/14 10:16:50;;;;;;;5.97;2.30;;;;;;;7.18;64.75;99971.88;5046208;28;20029;-69
2021/03/14 10:19:16;;;;;;;12.73;2.30;;;;;;;7.39;64.63;99970.63;5070475;28;20381;-69
2021/03/14 10:21:43;;;;;;;12.82;2.97;;;;;;;7.70;63.94;99957.63;5071718;28;20402;-69
2021/03/14 10:24:20;;;;;;;5.22;2.65;;;;;;;8.43;62.42;99958.69;5070965;28;20037;-69
2021/03/14 10:27:04;;;;;;;6.80;1.85;;;;;;;8.10;62.42;99968.44;5071020;28;20032;-69
2021/03/14 10:29:54;;;;;;;6.50;1.33;;;;;;;7.69;62.48;99966.56;5056292;28;20465;-69
2021/03/14 10:32:33;;;;;;;4.13;1.30;;;;;;;7.26;61.90;99964.91;5071026;28;20434;-69
2021/03/14 10:35:10;;;;;;;5.63;1.38;;;;;;;7.25;63.50;99968.59;5071029;28;20059;-69
2021/03/14 10:37:37;;;;;;;5.28;1.20;;;;;;;7.20;61.44;99961.09;5053671;28;20108;-69
2021/03/14 10:40:20;;;;;;;5.93;1.33;;;;;;;7.26;62.12;99975.53;5070956;28;20480;-69
2021/03/14 10:42:49;;;;;;;4.60;1.60;;;;;;;7.30;62.81;99971.59;5071023;28;20123;-69
2021/03/14 10:45:23;;;;;;;4.13;1.45;;;;;;;7.24;62.91;99980.22;5070624;28;20024;-69
2021/03/14 10:48:03;;;;;;;3.30;1.08;;;;;;;7.36;62.72;99977.09;5053988;28;20128;-69
2021/03/14 10:50:34;;;;;;;7.90;1.88;;;;;;;7.71;62.31;99974.38;5069967;28;20021;-69
2021/03/14 10:53:17;;;;;;;7.30;1.45;;;;;;;8.07;61.79;99992.69;5068663;28;20031;-69
2021/03/14 10:55:45;;;;;;;13.02;1.88;;;;;;;8.90;59.20;99986.34;5069278;28;20020;-69
2021/03/14 10:58:16;;;;;;;10.07;1.13;;;;;;;9.09;59.69;99985.97;5069968;28;20036;-69
2021/03/14 11:00:51;;;;;;;8.48;1.10;;;;;;;9.06;58.94;99988.97;5070528;28;20481;-69
2021/03/14 11:03:24;;;;;;;16.00;3.35;;;;;;;8.71;60.26;99998.19;5069829;28;20405;-69
2021/03/14 11:05:50;;;;;;;4.40;1.10;;;;;;;8.00;62.08;100011.94;5071019;28;20028;-69
2021/03/14 11:08:18;;;;;;;5.78;1.20;;;;;;;7.40;66.14;100014.78;5070139;28;20029;-69
2021/03/14 11:10:55;;;;;;;7.88;1.38;;;;;;;6.95;70.78;100022.03;5055291;28;20037;-70
2021/03/14 11:13:36;;;;;;;7.65;1.77;;;;;;;6.86;73.33;100019.47;5058196;28;20049;-70
2021/03/14 11:16:27;;;;;;;8.20;1.40;;;;;;;7.02;73.86;100010.78;5028828;28;20136;-70
2021/03/14 11:19:03;;;;;;;9.90;1.58;;;;;;;8.18;71.62;100019.78;5029501;28;20829;-70
2021/03/14 11:21:40;;;;;;;5.00;2.00;;;;;;;8.82;68.03;100016.47;5044134;28;20583;-70
2021/03/14 11:24:07;;;;;;;7.68;1.25;;;;;;;9.70;65.19;100016.34;5023183;28;20069;-70
2021/03/14 11:26:38;;;;;;;8.85;1.58;;;;;;;10.82;63.04;100005.22;5029846;28;20336;-70
2021/03/14 11:29:04;;;;;;;5.82;1.20;;;;;;;11.50;59.45;100013.16;5019847;28;20044;-70
2021/03/14 11:31:38;;;;;;;9.13;1.60;;;;;;;11.57;57.83;100017.56;5045102;28;20061;-70
2021/03/14 11:34:08;;;;;;;6.88;1.70;;;;;;;10.88;58.69;100014.34;5020292;28;20057;-70
2021/03/14 11:36:47;;;;;;;12.90;1.63;;;;;;;10.21;60.83;100021.22;5026241;28;20037;-70
2021/03/14 11:39:20;;;;;;;8.48;1.63;;;;;;;9.69;61.92;100030.69;5046327;28;20037;-70
2021/03/14 11:41:54;;;;;;;11.48;2.08;;;;;;;8.92;65.01;100021.63;5030267;28;20124;-70
2021/03/14 11:44:48;;;;;;;13.35;1.88;;;;;;;8.20;65.34;100023.13;5031068;28;20064;-70
2021/03/14 11:47:14;;;;;;;14.40;1.87;;;;;;;7.87;70.67;100024.91;5030144;28;20359;-70
2021/03/14 11:49:57;;;;;;;10.38;1.73;;;;;;;7.73;70.22;100036.16;5029900;28;20119;-71